sensor_id;sensor_type;location;lat;lon;timestamp;pressure;altitude;pressure_sealevel;temperature;humidity
15314;BME280;7757;52.626;4.746;2023-04-04T00:02:38;102962.50;;;15.19;57.67
15314;BME280;7757;52.626;4.746;2023-04-04T00:05:24;102974.66;;;15.23;57.94
15314;BME280;7757;52.626;4.746;2023-04-04T00:08:10;102974.31;;;15.26;57.20
15314;BME280;7757;52.626;4.746;2023-04-04T00:10:56;102963.16;;;15.21;57.65
15314;BME280;7757;52.626;4.746;2023-04-04T00:13:42;102969.25;;;15.23;58.05
15314;BME280;7757;52.626;4.746;2023-04-04T00:16:28;102968.56;;;15.21;57.20
15314;BME280;7757;52.626;4.746;2023-04-04T00:19:13;102953.53;;;15.10;58.21
15314;BME280;7757;52.626;4.746;2023-04-04T00:22:02;102951.38;;;15.14;57.81
15314;BME280;7757;52.626;4.746;2023-04-04T00:24:47;102961.50;;;15.20;57.22
15314;BME280;7757;52.626;4.746;2023-04-04T00:27:33;102945.97;;;15.14;58.50
15314;BME280;7757;52.626;4.746;2023-04-04T00:30:18;102949.88;;;15.19;57.19
15314;BME280;7757;52.626;4.746;2023-04-04T00:33:03;102948.16;;;15.18;57.36
15314;BME280;7757;52.626;4.746;2023-04-04T00:35:49;102935.34;;;15.12;58.38
15314;BME280;7757;52.626;4.746;2023-04-04T00:38:35;102930.13;;;15.11;58.41
15314;BME280;7757;52.626;4.746;2023-04-04T00:41:21;102935.34;;;15.12;58.00
15314;BME280;7757;52.626;4.746;2023-04-04T00:44:06;102939.75;;;15.13;57.28
15314;BME280;7757;52.626;4.746;2023-04-04T00:46:52;102934.84;;;15.08;57.48
15314;BME280;7757;52.626;4.746;2023-04-04T00:49:37;102940.41;;;15.15;58.38
15314;BME280;7757;52.626;4.746;2023-04-04T00:52:23;102931.31;;;15.08;57.59
15314;BME280;7757;52.626;4.746;2023-04-04T00:55:10;102940.06;;;15.10;57.87
15314;BME280;7757;52.626;4.746;2023-04-04T00:57:57;102939.88;;;15.12;58.36
15314;BME280;7757;52.626;4.746;2023-04-04T01:00:42;102926.91;;;15.07;57.97
15314;BME280;7757;52.626;4.746;2023-04-04T01:03:30;102935.34;;;15.12;57.24
15314;BME280;7757;52.626;4.746;2023-04-04T01:06:16;102935.69;;;15.09;58.03
15314;BME280;7757;52.626;4.746;2023-04-04T01:09:02;102919.00;;;15.05;58.03
15314;BME280;7757;52.626;4.746;2023-04-04T01:11:49;102930.28;;;15.09;57.78
15314;BME280;7757;52.626;4.746;2023-04-04T01:14:34;102924.41;;;15.05;57.43
15314;BME280;7757;52.626;4.746;2023-04-04T01:17:20;102919.34;;;15.02;58.03
15314;BME280;7757;52.626;4.746;2023-04-04T01:20:09;102932.50;;;15.05;57.76
15314;BME280;7757;52.626;4.746;2023-04-04T01:22:57;102930.78;;;15.04;57.77
15314;BME280;7757;52.626;4.746;2023-04-04T01:25:44;102931.47;;;15.06;57.79
15314;BME280;7757;52.626;4.746;2023-04-04T01:28:30;102931.63;;;15.05;57.18
15314;BME280;7757;52.626;4.746;2023-04-04T01:31:20;102931.47;;;15.06;57.10
15314;BME280;7757;52.626;4.746;2023-04-04T01:34:11;102939.03;;;15.03;57.83
15314;BME280;7757;52.626;4.746;2023-04-04T01:37:02;102942.56;;;15.03;57.09
15314;BME280;7757;52.626;4.746;2023-04-04T01:39:53;102935.13;;;14.97;58.23
15314;BME280;7757;52.626;4.746;2023-04-04T01:42:43;102935.84;;;14.99;57.96
15314;BME280;7757;52.626;4.746;2023-04-04T01:45:29;102930.59;;;14.98;58.02
15314;BME280;7757;52.626;4.746;2023-04-04T01:48:15;102929.28;;;15.02;57.00
15314;BME280;7757;52.626;4.746;2023-04-04T01:51:01;102930.28;;;15.01;57.08
15314;BME280;7757;52.626;4.746;2023-04-04T01:53:46;102919.16;;;14.96;57.92
15314;BME280;7757;52.626;4.746;2023-04-04T01:56:32;102919.47;;;14.93;57.62
15314;BME280;7757;52.626;4.746;2023-04-04T01:59:19;102918.97;;;14.97;57.79
15314;BME280;7757;52.626;4.746;2023-04-04T02:02:05;102923.03;;;14.93;57.66
15314;BME280;7757;52.626;4.746;2023-04-04T02:04:50;102916.47;;;14.96;57.80
15314;BME280;7757;52.626;4.746;2023-04-04T02:07:36;102926.19;;;14.97;57.39
15314;BME280;7757;52.626;4.746;2023-04-04T02:10:21;102900.75;;;14.83;57.87
15314;BME280;7757;52.626;4.746;2023-04-04T02:13:06;102926.06;;;14.98;57.36
15314;BME280;7757;52.626;4.746;2023-04-04T02:15:53;102909.16;;;14.88;57.54
15314;BME280;7757;52.626;4.746;2023-04-04T02:18:39;102920.16;;;14.95;58.38
15314;BME280;7757;52.626;4.746;2023-04-04T02:21:24;102910.38;;;14.94;57.37
15314;BME280;7757;52.626;4.746;2023-04-04T02:24:10;102912.72;;;14.89;57.39
15314;BME280;7757;52.626;4.746;2023-04-04T02:26:55;102914.94;;;14.93;57.93
15314;BME280;7757;52.626;4.746;2023-04-04T02:29:41;102916.59;;;14.94;57.46
15314;BME280;7757;52.626;4.746;2023-04-04T02:32:28;102914.56;;;14.88;57.73
15314;BME280;7757;52.626;4.746;2023-04-04T02:35:13;102900.28;;;14.88;57.31
15314;BME280;7757;52.626;4.746;2023-04-04T02:37:59;102913.38;;;14.91;57.71
15314;BME280;7757;52.626;4.746;2023-04-04T02:40:45;102897.06;;;14.84;57.15
15314;BME280;7757;52.626;4.746;2023-04-04T02:43:30;102904.09;;;14.85;57.40
15314;BME280;7757;52.626;4.746;2023-04-04T02:46:15;102909.34;;;14.87;57.92
15314;BME280;7757;52.626;4.746;2023-04-04T02:49:03;102895.34;;;14.83;57.26
15314;BME280;7757;52.626;4.746;2023-04-04T02:51:49;102902.97;;;14.88;58.15
15314;BME280;7757;52.626;4.746;2023-04-04T02:54:34;102915.72;;;14.86;58.07
15314;BME280;7757;52.626;4.746;2023-04-04T02:57:19;102909.16;;;14.88;57.75
15314;BME280;7757;52.626;4.746;2023-04-04T03:00:06;102909.34;;;14.87;57.54
15314;BME280;7757;52.626;4.746;2023-04-04T03:02:53;102910.34;;;14.86;56.89
15314;BME280;7757;52.626;4.746;2023-04-04T03:05:40;102906.31;;;14.90;57.86
15314;BME280;7757;52.626;4.746;2023-04-04T03:08:26;102900.91;;;14.82;58.26
15314;BME280;7757;52.626;4.746;2023-04-04T03:11:16;102904.09;;;14.85;57.34
15314;BME280;7757;52.626;4.746;2023-04-04T03:14:01;102900.75;;;14.83;57.49
15314;BME280;7757;52.626;4.746;2023-04-04T03:16:46;102898.38;;;14.80;57.14
15314;BME280;7757;52.626;4.746;2023-04-04T03:19:33;102908.69;;;14.85;57.99
15314;BME280;7757;52.626;4.746;2023-04-04T03:22:20;102903.75;;;14.80;57.49
15314;BME280;7757;52.626;4.746;2023-04-04T03:25:06;102868.31;;;14.59;57.91
15314;BME280;7757;52.626;4.746;2023-04-04T03:27:51;102911.00;;;14.80;57.42
15314;BME280;7757;52.626;4.746;2023-04-04T03:30:36;102913.69;;;14.80;57.62
15314;BME280;7757;52.626;4.746;2023-04-04T03:33:22;102918.09;;;14.81;57.86
15314;BME280;7757;52.626;4.746;2023-04-04T03:36:09;102908.63;;;14.77;56.97
15314;BME280;7757;52.626;4.746;2023-04-04T03:38:56;102900.19;;;14.72;57.29
15314;BME280;7757;52.626;4.746;2023-04-04T03:41:41;102907.63;;;14.78;56.84
15314;BME280;7757;52.626;4.746;2023-04-04T03:44:27;102913.88;;;14.78;57.98
15314;BME280;7757;52.626;4.746;2023-04-04T03:47:12;102914.00;;;14.77;56.96
15314;BME280;7757;52.626;4.746;2023-04-04T03:49:58;102907.78;;;14.76;57.60
15314;BME280;7757;52.626;4.746;2023-04-04T03:52:43;102908.28;;;14.72;56.81
15314;BME280;7757;52.626;4.746;2023-04-04T03:55:30;102900.38;;;14.70;57.69
15314;BME280;7757;52.626;4.746;2023-04-04T03:58:15;102906.44;;;14.72;57.59
15314;BME280;7757;52.626;4.746;2023-04-04T04:01:01;102901.91;;;14.73;57.04
15314;BME280;7757;52.626;4.746;2023-04-04T04:03:46;102898.34;;;14.72;56.79
15314;BME280;7757;52.626;4.746;2023-04-04T04:06:35;102899.34;;;14.71;57.46
15314;BME280;7757;52.626;4.746;2023-04-04T04:09:20;102894.47;;;14.67;56.86
15314;BME280;7757;52.626;4.746;2023-04-04T04:12:07;102905.06;;;14.68;56.49
15314;BME280;7757;52.626;4.746;2023-04-04T04:14:52;102901.53;;;14.68;56.94
15314;BME280;7757;52.626;4.746;2023-04-04T04:17:38;102899.69;;;14.68;57.13
15314;BME280;7757;52.626;4.746;2023-04-04T04:20:23;102892.75;;;14.66;57.79
15314;BME280;7757;52.626;4.746;2023-04-04T04:23:09;102887.34;;;14.58;57.45
15314;BME280;7757;52.626;4.746;2023-04-04T04:25:54;102891.72;;;14.59;56.92
15314;BME280;7757;52.626;4.746;2023-04-04T04:28:41;102901.16;;;14.63;58.13
15314;BME280;7757;52.626;4.746;2023-04-04T04:31:26;102895.63;;;14.64;56.71
15314;BME280;7757;52.626;4.746;2023-04-04T04:34:12;102902.88;;;14.64;56.97
15314;BME280;7757;52.626;4.746;2023-04-04T04:36:57;102890.56;;;14.61;56.63
15314;BME280;7757;52.626;4.746;2023-04-04T04:39:43;102896.09;;;14.60;57.60
15314;BME280;7757;52.626;4.746;2023-04-04T04:42:28;102890.38;;;14.55;57.31
15314;BME280;7757;52.626;4.746;2023-04-04T04:45:15;102902.66;;;14.57;57.63
15314;BME280;7757;52.626;4.746;2023-04-04T04:48:00;102903.50;;;14.58;57.66
15314;BME280;7757;52.626;4.746;2023-04-04T04:50:46;102896.41;;;14.48;56.50
15314;BME280;7757;52.626;4.746;2023-04-04T04:53:32;102907.19;;;14.57;56.61
15314;BME280;7757;52.626;4.746;2023-04-04T04:56:17;102915.13;;;14.58;56.88
15314;BME280;7757;52.626;4.746;2023-04-04T04:59:03;102920.66;;;14.57;56.55
15314;BME280;7757;52.626;4.746;2023-04-04T05:01:51;102915.13;;;14.58;57.27
15314;BME280;7757;52.626;4.746;2023-04-04T05:04:36;102913.22;;;14.50;56.56
15314;BME280;7757;52.626;4.746;2023-04-04T05:07:22;102903.84;;;14.55;56.73
15314;BME280;7757;52.626;4.746;2023-04-04T05:10:07;102907.16;;;14.48;57.42
15314;BME280;7757;52.626;4.746;2023-04-04T05:12:53;102916.13;;;14.57;57.27
15314;BME280;7757;52.626;4.746;2023-04-04T05:15:38;102884.91;;;14.38;57.38
15314;BME280;7757;52.626;4.746;2023-04-04T05:18:25;102902.78;;;14.47;56.53
15314;BME280;7757;52.626;4.746;2023-04-04T05:21:11;102908.03;;;14.49;56.46
15314;BME280;7757;52.626;4.746;2023-04-04T05:23:56;102904.69;;;14.55;57.32
15314;BME280;7757;52.626;4.746;2023-04-04T05:26:42;102903.50;;;14.49;55.97
15314;BME280;7757;52.626;4.746;2023-04-04T05:29:28;102912.75;;;14.55;56.64
15314;BME280;7757;52.626;4.746;2023-04-04T05:32:13;102912.75;;;14.55;57.16
15314;BME280;7757;52.626;4.746;2023-04-04T05:35:00;102894.03;;;14.45;57.25
15314;BME280;7757;52.626;4.746;2023-04-04T05:37:45;102906.56;;;14.63;57.25
15314;BME280;7757;52.626;4.746;2023-04-04T05:40:31;102900.69;;;14.67;56.41
15314;BME280;7757;52.626;4.746;2023-04-04T05:43:16;102892.78;;;14.74;56.24
15314;BME280;7757;52.626;4.746;2023-04-04T05:46:02;102897.53;;;14.80;55.81
15314;BME280;7757;52.626;4.746;2023-04-04T05:48:47;102894.50;;;14.83;56.13
15314;BME280;7757;52.626;4.746;2023-04-04T05:51:34;102897.72;;;14.86;56.52
15314;BME280;7757;52.626;4.746;2023-04-04T05:54:20;102897.22;;;14.91;55.74
15314;BME280;7757;52.626;4.746;2023-04-04T05:57:05;102909.22;;;14.96;55.19
15314;BME280;7757;52.626;4.746;2023-04-04T05:59:51;102899.13;;;14.98;55.43
15314;BME280;7757;52.626;4.746;2023-04-04T06:02:36;102903.66;;;15.06;55.73
15314;BME280;7757;52.626;4.746;2023-04-04T06:05:21;102893.25;;;15.11;55.45
15314;BME280;7757;52.626;4.746;2023-04-04T06:08:11;102903.03;;;15.20;55.00
15314;BME280;7757;52.626;4.746;2023-04-04T06:10:56;102899.50;;;15.28;54.61
15314;BME280;7757;52.626;4.746;2023-04-04T06:13:41;102903.25;;;15.35;54.34
15314;BME280;7757;52.626;4.746;2023-04-04T06:16:27;102904.41;;;15.40;54.62
15314;BME280;7757;52.626;4.746;2023-04-04T06:19:12;102901.19;;;15.45;54.73
15314;BME280;7757;52.626;4.746;2023-04-04T06:21:58;102902.59;;;15.57;54.81
15314;BME280;7757;52.626;4.746;2023-04-04T06:24:45;102899.22;;;15.71;54.82
15314;BME280;7757;52.626;4.746;2023-04-04T06:27:30;102899.72;;;15.91;54.90
15314;BME280;7757;52.626;4.746;2023-04-04T06:30:16;102891.72;;;16.22;55.73
15314;BME280;7757;52.626;4.746;2023-04-04T06:33:01;102905.47;;;16.67;54.23
15314;BME280;7757;52.626;4.746;2023-04-04T06:35:46;102907.06;;;17.38;53.43
15314;BME280;7757;52.626;4.746;2023-04-04T06:38:32;102913.34;;;17.98;51.32
15314;BME280;7757;52.626;4.746;2023-04-04T06:41:18;102904.06;;;18.45;50.53
15314;BME280;7757;52.626;4.746;2023-04-04T06:44:04;102922.28;;;18.80;49.49
15314;BME280;7757;52.626;4.746;2023-04-04T06:46:50;102926.13;;;19.21;48.81
15314;BME280;7757;52.626;4.746;2023-04-04T06:49:35;102933.56;;;19.34;48.27
15314;BME280;7757;52.626;4.746;2023-04-04T06:52:21;102930.94;;;19.40;48.31
15314;BME280;7757;52.626;4.746;2023-04-04T06:55:06;102937.41;;;19.61;48.06
15314;BME280;7757;52.626;4.746;2023-04-04T06:57:53;102950.78;;;19.83;47.65
15314;BME280;7757;52.626;4.746;2023-04-04T07:00:41;102945.97;;;20.07;46.83
15314;BME280;7757;52.626;4.746;2023-04-04T07:03:26;102941.69;;;20.19;46.64
15314;BME280;7757;52.626;4.746;2023-04-04T07:06:12;102927.88;;;20.20;46.83
15314;BME280;7757;52.626;4.746;2023-04-04T07:08:57;102936.00;;;20.41;46.46
15314;BME280;7757;52.626;4.746;2023-04-04T07:11:42;102936.22;;;20.46;45.94
15314;BME280;7757;52.626;4.746;2023-04-04T07:14:29;102933.19;;;20.63;45.43
15314;BME280;7757;52.626;4.746;2023-04-04T07:17:15;102942.47;;;20.75;45.46
15314;BME280;7757;52.626;4.746;2023-04-04T07:20:00;102930.38;;;20.84;45.37
15314;BME280;7757;52.626;4.746;2023-04-04T07:22:47;102932.66;;;20.80;45.57
15314;BME280;7757;52.626;4.746;2023-04-04T07:25:32;102927.53;;;20.64;45.55
15314;BME280;7757;52.626;4.746;2023-04-04T07:28:17;102936.38;;;20.66;45.93
15314;BME280;7757;52.626;4.746;2023-04-04T07:31:04;102920.28;;;20.71;45.32
15314;BME280;7757;52.626;4.746;2023-04-04T07:33:50;102937.88;;;20.75;45.33
15314;BME280;7757;52.626;4.746;2023-04-04T07:36:36;102924.13;;;20.90;45.51
15314;BME280;7757;52.626;4.746;2023-04-04T07:39:22;102924.25;;;21.16;45.01
15314;BME280;7757;52.626;4.746;2023-04-04T07:42:07;102919.03;;;21.28;44.08
15314;BME280;7757;52.626;4.746;2023-04-04T07:44:53;102917.81;;;21.37;44.37
15314;BME280;7757;52.626;4.746;2023-04-04T07:47:42;102923.69;;;21.53;43.83
15314;BME280;7757;52.626;4.746;2023-04-04T07:50:29;102908.81;;;21.56;43.88
15314;BME280;7757;52.626;4.746;2023-04-04T07:53:14;102902.31;;;21.50;43.75
15314;BME280;7757;52.626;4.746;2023-04-04T07:56:00;102917.81;;;21.56;43.41
15314;BME280;7757;52.626;4.746;2023-04-04T07:58:49;102910.91;;;21.54;44.33
15314;BME280;7757;52.626;4.746;2023-04-04T08:01:34;102899.41;;;21.52;45.01
15314;BME280;7757;52.626;4.746;2023-04-04T08:04:21;102905.66;;;21.52;45.43
15314;BME280;7757;52.626;4.746;2023-04-04T08:07:06;102906.94;;;21.63;45.10
15314;BME280;7757;52.626;4.746;2023-04-04T08:09:51;102900.66;;;21.62;44.76
15314;BME280;7757;52.626;4.746;2023-04-04T08:12:37;102905.25;;;21.62;45.67
15314;BME280;7757;52.626;4.746;2023-04-04T08:15:22;102900.25;;;21.72;45.27
15314;BME280;7757;52.626;4.746;2023-04-04T08:18:08;102902.13;;;21.78;45.24
15314;BME280;7757;52.626;4.746;2023-04-04T08:20:54;102898.16;;;21.87;45.10
15314;BME280;7757;52.626;4.746;2023-04-04T08:23:40;102899.66;;;21.96;45.09
15314;BME280;7757;52.626;4.746;2023-04-04T08:26:25;102896.88;;;22.03;44.79
15314;BME280;7757;52.626;4.746;2023-04-04T08:29:11;102892.50;;;22.02;45.27
15314;BME280;7757;52.626;4.746;2023-04-04T08:31:56;102887.63;;;22.23;44.79
15314;BME280;7757;52.626;4.746;2023-04-04T08:34:42;102885.31;;;22.40;45.03
15314;BME280;7757;52.626;4.746;2023-04-04T08:37:28;102876.09;;;22.35;44.97
15314;BME280;7757;52.626;4.746;2023-04-04T08:40:14;102893.00;;;22.50;44.46
15314;BME280;7757;52.626;4.746;2023-04-04T08:43:00;102886.69;;;22.56;44.44
15314;BME280;7757;52.626;4.746;2023-04-04T08:45:45;102884.63;;;22.64;44.48
15314;BME280;7757;52.626;4.746;2023-04-04T08:48:34;102892.75;;;22.71;44.74
15314;BME280;7757;52.626;4.746;2023-04-04T08:51:21;102894.25;;;22.67;44.08
15314;BME280;7757;52.626;4.746;2023-04-04T08:54:08;102895.72;;;22.69;44.53
15314;BME280;7757;52.626;4.746;2023-04-04T08:56:53;102894.00;;;22.75;43.95
15314;BME280;7757;52.626;4.746;2023-04-04T08:59:39;102884.28;;;22.86;43.58
15314;BME280;7757;52.626;4.746;2023-04-04T09:02:28;102884.72;;;22.83;44.43
15314;BME280;7757;52.626;4.746;2023-04-04T09:05:15;102901.88;;;23.03;44.14
15314;BME280;7757;52.626;4.746;2023-04-04T09:08:02;102883.56;;;23.03;43.74
15314;BME280;7757;52.626;4.746;2023-04-04T09:10:51;102885.81;;;22.75;43.61
15314;BME280;7757;52.626;4.746;2023-04-04T09:13:37;102887.97;;;22.66;43.15
15314;BME280;7757;52.626;4.746;2023-04-04T09:16:25;102887.94;;;22.60;42.73
15314;BME280;7757;52.626;4.746;2023-04-04T09:19:11;102890.69;;;22.53;43.22
15314;BME280;7757;52.626;4.746;2023-04-04T09:21:56;102882.75;;;22.52;42.56
15314;BME280;7757;52.626;4.746;2023-04-04T09:24:42;102879.81;;;22.47;42.81
15314;BME280;7757;52.626;4.746;2023-04-04T09:27:30;102886.16;;;22.28;42.83
15314;BME280;7757;52.626;4.746;2023-04-04T09:30:15;102895.63;;;22.12;42.98
15314;BME280;7757;52.626;4.746;2023-04-04T09:33:03;102888.28;;;21.80;43.59
15314;BME280;7757;52.626;4.746;2023-04-04T09:35:50;102884.09;;;22.16;42.33
15314;BME280;7757;52.626;4.746;2023-04-04T09:38:38;102895.31;;;22.53;41.82
15314;BME280;7757;52.626;4.746;2023-04-04T09:41:24;102892.16;;;22.56;42.75
15314;BME280;7757;52.626;4.746;2023-04-04T09:44:12;102895.09;;;22.61;43.15
15314;BME280;7757;52.626;4.746;2023-04-04T09:47:23;102881.91;;;22.64;42.72
15314;BME280;7757;52.626;4.746;2023-04-04T09:50:20;102877.06;;;22.53;43.03
15314;BME280;7757;52.626;4.746;2023-04-04T09:53:06;102886.06;;;22.60;43.58
15314;BME280;7757;52.626;4.746;2023-04-04T09:55:52;102882.09;;;22.56;43.74
15314;BME280;7757;52.626;4.746;2023-04-04T09:58:38;102889.22;;;22.57;43.33
15314;BME280;7757;52.626;4.746;2023-04-04T10:01:27;102887.78;;;22.55;43.48
15314;BME280;7757;52.626;4.746;2023-04-04T10:04:12;102886.69;;;22.56;43.38
15314;BME280;7757;52.626;4.746;2023-04-04T10:06:59;102895.66;;;21.99;44.52
15314;BME280;7757;52.626;4.746;2023-04-04T10:09:45;102885.34;;;21.68;43.98
15314;BME280;7757;52.626;4.746;2023-04-04T10:12:31;102887.88;;;21.56;43.52
15314;BME280;7757;52.626;4.746;2023-04-04T10:15:17;102888.50;;;21.45;43.82
15314;BME280;7757;52.626;4.746;2023-04-04T10:18:04;102883.69;;;21.34;44.33
15314;BME280;7757;52.626;4.746;2023-04-04T10:20:53;102886.34;;;21.21;43.78
15314;BME280;7757;52.626;4.746;2023-04-04T10:23:41;102881.13;;;21.13;43.26
15314;BME280;7757;52.626;4.746;2023-04-04T10:26:27;102881.28;;;21.05;43.72
15314;BME280;7757;52.626;4.746;2023-04-04T10:29:12;102866.81;;;20.98;44.15
15314;BME280;7757;52.626;4.746;2023-04-04T10:32:01;102875.34;;;20.88;43.58
15314;BME280;7757;52.626;4.746;2023-04-04T10:34:59;102864.03;;;20.78;43.39
15314;BME280;7757;52.626;4.746;2023-04-04T10:37:51;102869.84;;;20.69;43.76
15314;BME280;7757;52.626;4.746;2023-04-04T10:40:42;102864.19;;;20.64;43.47
15314;BME280;7757;52.626;4.746;2023-04-04T10:43:31;102863.09;;;20.51;43.67
15314;BME280;7757;52.626;4.746;2023-04-04T10:46:21;102859.63;;;20.77;44.68
15314;BME280;7757;52.626;4.746;2023-04-04T10:49:14;102851.94;;;20.94;44.50
15314;BME280;7757;52.626;4.746;2023-04-04T10:52:01;102849.66;;;21.04;44.40
15314;BME280;7757;52.626;4.746;2023-04-04T10:54:48;102847.00;;;21.10;44.61
15314;BME280;7757;52.626;4.746;2023-04-04T10:57:37;102835.63;;;21.00;44.67
15314;BME280;7757;52.626;4.746;2023-04-04T11:00:23;102834.38;;;21.03;44.46
15314;BME280;7757;52.626;4.746;2023-04-04T11:03:09;102832.72;;;21.02;44.33
15314;BME280;7757;52.626;4.746;2023-04-04T11:05:54;102827.47;;;21.00;44.77
15314;BME280;7757;52.626;4.746;2023-04-04T11:08:53;102845.31;;;21.09;44.90
15314;BME280;7757;52.626;4.746;2023-04-04T11:12:09;102841.56;;;21.10;44.57
15314;BME280;7757;52.626;4.746;2023-04-04T11:15:06;102839.22;;;21.07;45.04
15314;BME280;7757;52.626;4.746;2023-04-04T11:17:55;102839.81;;;21.03;44.63
15314;BME280;7757;52.626;4.746;2023-04-04T11:20:41;102843.38;;;21.03;44.94
15314;BME280;7757;52.626;4.746;2023-04-04T11:23:59;102842.50;;;20.96;45.01
15314;BME280;7757;52.626;4.746;2023-04-04T11:26:45;102831.56;;;20.64;44.98
15314;BME280;7757;52.626;4.746;2023-04-04T11:29:49;102812.66;;;20.49;44.79
15314;BME280;7757;52.626;4.746;2023-04-04T11:32:47;102817.16;;;20.83;45.48
15314;BME280;7757;52.626;4.746;2023-04-04T11:35:32;102819.13;;;21.02;45.43
15314;BME280;7757;52.626;4.746;2023-04-04T11:38:19;102819.31;;;21.07;45.45
15314;BME280;7757;52.626;4.746;2023-04-04T11:41:04;102809.47;;;21.06;45.38
15314;BME280;7757;52.626;4.746;2023-04-04T11:43:52;102797.34;;;21.02;45.14
15314;BME280;7757;52.626;4.746;2023-04-04T11:46:37;102801.28;;;20.99;45.13
15314;BME280;7757;52.626;4.746;2023-04-04T11:49:26;102803.84;;;21.07;45.43
15314;BME280;7757;52.626;4.746;2023-04-04T11:52:15;102803.00;;;21.07;45.48
15314;BME280;7757;52.626;4.746;2023-04-04T11:55:00;102787.94;;;21.11;45.43
15314;BME280;7757;52.626;4.746;2023-04-04T11:57:46;102790.44;;;21.06;45.44
15314;BME280;7757;52.626;4.746;2023-04-04T12:00:36;102792.31;;;21.05;45.17
15314;BME280;7757;52.626;4.746;2023-04-04T12:03:22;102799.91;;;21.10;45.68
15314;BME280;7757;52.626;4.746;2023-04-04T12:06:10;102797.19;;;21.17;45.30
15314;BME280;7757;52.626;4.746;2023-04-04T12:08:55;102794.84;;;21.20;45.36
15314;BME280;7757;52.626;4.746;2023-04-04T12:11:42;102794.25;;;21.18;45.79
15314;BME280;7757;52.626;4.746;2023-04-04T12:14:28;102777.66;;;21.06;45.82
15314;BME280;7757;52.626;4.746;2023-04-04T12:17:15;102773.91;;;21.07;45.34
15314;BME280;7757;52.626;4.746;2023-04-04T12:20:00;102774.75;;;21.14;45.45
15314;BME280;7757;52.626;4.746;2023-04-04T12:22:47;102764.06;;;21.06;45.54
15314;BME280;7757;52.626;4.746;2023-04-04T12:25:36;102774.75;;;21.14;45.73
15314;BME280;7757;52.626;4.746;2023-04-04T12:28:23;102766.59;;;21.14;46.16
15314;BME280;7757;52.626;4.746;2023-04-04T12:31:10;102773.09;;;21.20;45.63
15314;BME280;7757;52.626;4.746;2023-04-04T12:33:58;102765.78;;;21.21;45.75
15314;BME280;7757;52.626;4.746;2023-04-04T12:36:45;102755.53;;;21.16;46.25
15314;BME280;7757;52.626;4.746;2023-04-04T12:39:31;102746.72;;;21.14;45.86
15314;BME280;7757;52.626;4.746;2023-04-04T12:42:20;102751.53;;;21.19;45.89
15314;BME280;7757;52.626;4.746;2023-04-04T12:45:07;102742.09;;;21.14;46.45
15314;BME280;7757;52.626;4.746;2023-04-04T12:47:53;102744.41;;;21.18;46.35
15314;BME280;7757;52.626;4.746;2023-04-04T12:50:50;102720.34;;;21.08;46.52
15314;BME280;7757;52.626;4.746;2023-04-04T12:53:49;102717.63;;;21.08;46.33
15314;BME280;7757;52.626;4.746;2023-04-04T12:56:35;102732.81;;;20.70;46.24
15314;BME280;7757;52.626;4.746;2023-04-04T12:59:22;102727.97;;;20.45;46.73
15314;BME280;7757;52.626;4.746;2023-04-04T13:02:10;102733.25;;;20.73;46.34
15314;BME280;7757;52.626;4.746;2023-04-04T13:04:57;102713.16;;;20.68;46.48
15314;BME280;7757;52.626;4.746;2023-04-04T13:07:44;102721.78;;;20.78;46.91
15314;BME280;7757;52.626;4.746;2023-04-04T13:10:30;102715.06;;;20.80;46.47
15314;BME280;7757;52.626;4.746;2023-04-04T13:13:29;102715.50;;;20.77;46.14
15314;BME280;7757;52.626;4.746;2023-04-04T13:16:29;102709.81;;;20.79;46.47
15314;BME280;7757;52.626;4.746;2023-04-04T13:19:14;102699.38;;;20.69;46.23
15314;BME280;7757;52.626;4.746;2023-04-04T13:22:01;102697.72;;;20.81;46.25
15314;BME280;7757;52.626;4.746;2023-04-04T13:24:48;102698.75;;;20.87;46.27
15314;BME280;7757;52.626;4.746;2023-04-04T13:27:33;102693.94;;;20.82;45.87
15314;BME280;7757;52.626;4.746;2023-04-04T13:30:18;102695.41;;;20.78;46.74
15314;BME280;7757;52.626;4.746;2023-04-04T13:33:04;102690.38;;;20.75;46.42
15314;BME280;7757;52.626;4.746;2023-04-04T13:35:50;102685.16;;;20.80;46.93
15314;BME280;7757;52.626;4.746;2023-04-04T13:38:35;102681.59;;;20.80;46.51
15314;BME280;7757;52.626;4.746;2023-04-04T13:41:22;102689.75;;;20.86;46.80
15314;BME280;7757;52.626;4.746;2023-04-04T13:44:07;102687.44;;;20.96;46.59
15314;BME280;7757;52.626;4.746;2023-04-04T13:46:52;102687.25;;;21.04;46.28
15314;BME280;7757;52.626;4.746;2023-04-04T13:49:38;102669.66;;;21.00;46.08
15314;BME280;7757;52.626;4.746;2023-04-04T13:52:24;102656.06;;;21.00;45.89
15314;BME280;7757;52.626;4.746;2023-04-04T13:55:09;102667.16;;;21.05;46.21
15314;BME280;7757;52.626;4.746;2023-04-04T13:57:56;102664.66;;;21.04;46.19
15314;BME280;7757;52.626;4.746;2023-04-04T14:00:41;102665.91;;;21.01;46.33
15314;BME280;7757;52.626;4.746;2023-04-04T14:03:27;102660.66;;;21.06;46.63
15314;BME280;7757;52.626;4.746;2023-04-04T14:06:13;102664.66;;;21.04;46.83
15314;BME280;7757;52.626;4.746;2023-04-04T14:08:59;102662.16;;;21.09;46.16
15314;BME280;7757;52.626;4.746;2023-04-04T14:11:44;102664.03;;;21.08;46.36
15314;BME280;7757;52.626;4.746;2023-04-04T14:14:31;102662.16;;;21.09;46.35
15314;BME280;7757;52.626;4.746;2023-04-04T14:17:16;102661.94;;;21.04;46.22
15314;BME280;7757;52.626;4.746;2023-04-04T14:20:02;102674.72;;;21.10;46.20
15314;BME280;7757;52.626;4.746;2023-04-04T14:22:48;102668.44;;;21.09;46.39
15314;BME280;7757;52.626;4.746;2023-04-04T14:25:33;102660.47;;;21.08;46.19
15314;BME280;7757;52.626;4.746;2023-04-04T14:28:18;102665.72;;;21.09;46.64
15314;BME280;7757;52.626;4.746;2023-04-04T14:31:05;102649.59;;;21.08;46.44
15314;BME280;7757;52.626;4.746;2023-04-04T14:33:51;102659.63;;;21.14;46.11
15314;BME280;7757;52.626;4.746;2023-04-04T14:36:36;102652.31;;;21.14;46.11
15314;BME280;7757;52.626;4.746;2023-04-04T14:39:22;102650.00;;;21.18;45.91
15314;BME280;7757;52.626;4.746;2023-04-04T14:42:07;102636.41;;;21.11;46.02
15314;BME280;7757;52.626;4.746;2023-04-04T14:44:52;102638.28;;;21.18;46.19